sensor_id;sensor_type;location;lat;lon;timestamp;P1;durP1;ratioP1;P2;durP2;ratioP2
8001;SDS011;4046;48.774;8.732;2022-09-09T00:01:08;3.10;;;2.23;;
8001;SDS011;4046;48.774;8.732;2022-09-09T00:03:49;3.00;;;2.70;;
8001;SDS011;4046;48.774;8.732;2022-09-09T00:06:28;2.63;;;2.43;;
8001;SDS011;4046;48.774;8.732;2022-09-09T00:08:59;3.20;;;2.30;;
8001;SDS011;4046;48.774;8.732;2022-09-09T00:17:05;3.60;;;2.60;;
8001;SDS011;4046;48.774;8.732;2022-09-09T00:22:17;2.60;;;2.40;;
8001;SDS011;4046;48.774;8.732;2022-09-09T00:24:46;4.37;;;2.27;;
8001;SDS011;4046;48.774;8.732;2022-09-09T00:27:31;3.83;;;2.10;;
8001;SDS011;4046;48.774;8.732;2022-09-09T00:30:17;2.50;;;2.10;;
8001;SDS011;4046;48.774;8.732;2022-09-09T00:32:54;3.67;;;2.13;;
8001;SDS011;4046;48.774;8.732;2022-09-09T00:35:25;3.43;;;2.20;;
8001;SDS011;4046;48.774;8.732;2022-09-09T00:37:56;3.03;;;2.43;;
8001;SDS011;4046;48.774;8.732;2022-09-09T00:40:30;3.27;;;1.90;;
8001;SDS011;4046;48.774;8.732;2022-09-09T00:48:31;3.27;;;1.93;;
8001;SDS011;4046;48.774;8.732;2022-09-09T00:51:09;4.80;;;2.40;;
8001;SDS011;4046;48.774;8.732;2022-09-09T00:56:49;3.17;;;2.87;;
8001;SDS011;4046;48.774;8.732;2022-09-09T01:02:02;3.10;;;2.23;;
8001;SDS011;4046;48.774;8.732;2022-09-09T01:05:00;3.60;;;2.40;;
8001;SDS011;4046;48.774;8.732;2022-09-09T01:07:32;3.00;;;2.30;;
8001;SDS011;4046;48.774;8.732;2022-09-09T01:09:59;3.50;;;2.50;;
8001;SDS011;4046;48.774;8.732;2022-09-09T01:15:14;3.13;;;2.27;;
8001;SDS011;4046;48.774;8.732;2022-09-09T01:20:13;4.17;;;2.37;;
8001;SDS011;4046;48.774;8.732;2022-09-09T01:23:08;2.67;;;2.47;;
8001;SDS011;4046;48.774;8.732;2022-09-09T01:28:45;3.20;;;2.40;;
8001;SDS011;4046;48.774;8.732;2022-09-09T01:31:18;3.50;;;2.93;;
8001;SDS011;4046;48.774;8.732;2022-09-09T01:33:46;5.27;;;2.80;;
8001;SDS011;4046;48.774;8.732;2022-09-09T01:38:44;2.63;;;2.23;;
8001;SDS011;4046;48.774;8.732;2022-09-09T01:41:10;3.73;;;3.30;;
8001;SDS011;4046;48.774;8.732;2022-09-09T01:43:36;3.77;;;2.93;;
8001;SDS011;4046;48.774;8.732;2022-09-09T01:46:02;8.80;;;3.10;;
8001;SDS011;4046;48.774;8.732;2022-09-09T01:48:28;4.57;;;3.27;;
8001;SDS011;4046;48.774;8.732;2022-09-09T01:50:55;3.47;;;2.63;;
8001;SDS011;4046;48.774;8.732;2022-09-09T01:53:21;4.10;;;2.90;;
8001;SDS011;4046;48.774;8.732;2022-09-09T01:56:00;3.10;;;2.60;;
8001;SDS011;4046;48.774;8.732;2022-09-09T02:03:39;3.23;;;2.50;;
8001;SDS011;4046;48.774;8.732;2022-09-09T02:08:53;4.60;;;3.13;;
8001;SDS011;4046;48.774;8.732;2022-09-09T02:11:25;5.13;;;3.07;;
8001;SDS011;4046;48.774;8.732;2022-09-09T02:14:00;3.10;;;2.80;;
8001;SDS011;4046;48.774;8.732;2022-09-09T02:16:44;4.73;;;3.20;;
8001;SDS011;4046;48.774;8.732;2022-09-09T02:19:20;5.50;;;3.00;;
8001;SDS011;4046;48.774;8.732;2022-09-09T02:21:52;5.80;;;3.30;;
8001;SDS011;4046;48.774;8.732;2022-09-09T02:24:20;4.50;;;2.90;;
8001;SDS011;4046;48.774;8.732;2022-09-09T02:26:48;4.93;;;3.03;;
8001;SDS011;4046;48.774;8.732;2022-09-09T02:29:19;4.20;;;3.40;;
8001;SDS011;4046;48.774;8.732;2022-09-09T02:31:47;6.37;;;3.20;;
8001;SDS011;4046;48.774;8.732;2022-09-09T02:34:16;6.00;;;2.93;;
8001;SDS011;4046;48.774;8.732;2022-09-09T02:36:46;3.83;;;3.10;;
8001;SDS011;4046;48.774;8.732;2022-09-09T02:39:13;4.37;;;3.20;;
8001;SDS011;4046;48.774;8.732;2022-09-09T02:41:40;3.90;;;3.27;;
8001;SDS011;4046;48.774;8.732;2022-09-09T02:44:14;5.80;;;3.00;;
8001;SDS011;4046;48.774;8.732;2022-09-09T02:49:42;3.03;;;2.83;;
8001;SDS011;4046;48.774;8.732;2022-09-09T02:52:14;5.00;;;3.80;;
8001;SDS011;4046;48.774;8.732;2022-09-09T02:54:43;3.17;;;2.80;;
8001;SDS011;4046;48.774;8.732;2022-09-09T02:57:11;3.50;;;2.90;;
8001;SDS011;4046;48.774;8.732;2022-09-09T02:59:41;3.70;;;2.70;;
8001;SDS011;4046;48.774;8.732;2022-09-09T03:02:09;4.93;;;2.87;;
8001;SDS011;4046;48.774;8.732;2022-09-09T03:04:37;3.30;;;2.87;;
8001;SDS011;4046;48.774;8.732;2022-09-09T03:07:03;4.20;;;3.10;;
8001;SDS011;4046;48.774;8.732;2022-09-09T03:09:29;9.43;;;2.80;;
8001;SDS011;4046;48.774;8.732;2022-09-09T03:11:55;6.20;;;3.37;;
8001;SDS011;4046;48.774;8.732;2022-09-09T03:14:21;2.97;;;2.53;;
8001;SDS011;4046;48.774;8.732;2022-09-09T03:16:53;3.33;;;3.03;;
8001;SDS011;4046;48.774;8.732;2022-09-09T03:19:19;3.23;;;2.50;;
8001;SDS011;4046;48.774;8.732;2022-09-09T03:21:46;3.40;;;3.10;;
8001;SDS011;4046;48.774;8.732;2022-09-09T03:24:13;3.90;;;3.00;;
8001;SDS011;4046;48.774;8.732;2022-09-09T03:26:39;3.80;;;2.63;;
8001;SDS011;4046;48.774;8.732;2022-09-09T03:29:06;3.40;;;2.80;;
8001;SDS011;4046;48.774;8.732;2022-09-09T03:31:33;9.63;;;2.70;;
8001;SDS011;4046;48.774;8.732;2022-09-09T03:33:59;9.00;;;3.00;;
8001;SDS011;4046;48.774;8.732;2022-09-09T03:36:25;4.03;;;2.80;;
8001;SDS011;4046;48.774;8.732;2022-09-09T03:38:52;4.67;;;2.97;;
8001;SDS011;4046;48.774;8.732;2022-09-09T03:41:19;8.60;;;3.30;;
8001;SDS011;4046;48.774;8.732;2022-09-09T03:43:46;5.90;;;3.17;;
8001;SDS011;4046;48.774;8.732;2022-09-09T03:46:11;4.80;;;2.87;;
8001;SDS011;4046;48.774;8.732;2022-09-09T03:48:37;5.90;;;3.30;;
8001;SDS011;4046;48.774;8.732;2022-09-09T03:51:03;3.37;;;3.07;;
8001;SDS011;4046;48.774;8.732;2022-09-09T03:53:28;8.13;;;2.97;;
8001;SDS011;4046;48.774;8.732;2022-09-09T03:55:55;3.57;;;3.27;;
8001;SDS011;4046;48.774;8.732;2022-09-09T03:58:24;5.40;;;3.10;;
8001;SDS011;4046;48.774;8.732;2022-09-09T04:01:02;3.67;;;2.93;;
8001;SDS011;4046;48.774;8.732;2022-09-09T04:03:30;7.30;;;3.60;;
8001;SDS011;4046;48.774;8.732;2022-09-09T04:05:57;3.63;;;2.80;;
8001;SDS011;4046;48.774;8.732;2022-09-09T04:08:24;5.43;;;3.10;;
8001;SDS011;4046;48.774;8.732;2022-09-09T04:10:53;3.23;;;2.80;;
8001;SDS011;4046;48.774;8.732;2022-09-09T04:13:23;4.33;;;2.57;;
8001;SDS011;4046;48.774;8.732;2022-09-09T04:15:54;4.73;;;2.93;;
8001;SDS011;4046;48.774;8.732;2022-09-09T04:18:22;3.03;;;2.80;;
8001;SDS011;4046;48.774;8.732;2022-09-09T04:20:48;3.63;;;2.93;;
8001;SDS011;4046;48.774;8.732;2022-09-09T04:23:15;3.27;;;2.97;;
8001;SDS011;4046;48.774;8.732;2022-09-09T04:25:44;6.37;;;2.90;;
8001;SDS011;4046;48.774;8.732;2022-09-09T04:28:12;3.60;;;2.70;;
8001;SDS011;4046;48.774;8.732;2022-09-09T04:30:39;3.30;;;2.80;;
8001;SDS011;4046;48.774;8.732;2022-09-09T04:33:05;2.90;;;2.50;;
8001;SDS011;4046;48.774;8.732;2022-09-09T04:35:32;4.10;;;2.43;;
8001;SDS011;4046;48.774;8.732;2022-09-09T04:37:58;7.07;;;2.73;;
8001;SDS011;4046;48.774;8.732;2022-09-09T04:40:24;3.87;;;2.63;;
8001;SDS011;4046;48.774;8.732;2022-09-09T04:42:50;2.20;;;2.10;;
8001;SDS011;4046;48.774;8.732;2022-09-09T04:45:16;4.30;;;2.00;;
8001;SDS011;4046;48.774;8.732;2022-09-09T04:47:42;2.40;;;2.13;;
8001;SDS011;4046;48.774;8.732;2022-09-09T04:50:08;2.40;;;2.20;;
8001;SDS011;4046;48.774;8.732;2022-09-09T04:52:34;3.70;;;2.60;;
8001;SDS011;4046;48.774;8.732;2022-09-09T04:55:01;2.53;;;2.10;;
8001;SDS011;4046;48.774;8.732;2022-09-09T04:57:27;3.60;;;2.37;;
8001;SDS011;4046;48.774;8.732;2022-09-09T04:59:53;3.43;;;2.03;;
8001;SDS011;4046;48.774;8.732;2022-09-09T05:02:19;4.60;;;2.03;;
8001;SDS011;4046;48.774;8.732;2022-09-09T05:04:45;2.13;;;1.93;;
8001;SDS011;4046;48.774;8.732;2022-09-09T05:07:11;4.73;;;2.87;;
8001;SDS011;4046;48.774;8.732;2022-09-09T05:09:36;3.83;;;2.70;;
8001;SDS011;4046;48.774;8.732;2022-09-09T05:12:02;2.70;;;2.50;;
8001;SDS011;4046;48.774;8.732;2022-09-09T05:14:29;3.03;;;2.70;;
8001;SDS011;4046;48.774;8.732;2022-09-09T05:16:55;2.97;;;2.60;;
8001;SDS011;4046;48.774;8.732;2022-09-09T05:19:21;3.47;;;2.60;;
8001;SDS011;4046;48.774;8.732;2022-09-09T05:21:47;2.73;;;2.53;;
8001;SDS011;4046;48.774;8.732;2022-09-09T05:24:13;3.40;;;2.40;;
8001;SDS011;4046;48.774;8.732;2022-09-09T05:26:39;4.70;;;2.80;;
8001;SDS011;4046;48.774;8.732;2022-09-09T05:29:05;5.03;;;2.60;;
8001;SDS011;4046;48.774;8.732;2022-09-09T05:31:31;2.83;;;2.50;;
8001;SDS011;4046;48.774;8.732;2022-09-09T05:33:57;4.23;;;2.73;;
8001;SDS011;4046;48.774;8.732;2022-09-09T05:36:24;3.03;;;2.30;;
8001;SDS011;4046;48.774;8.732;2022-09-09T05:38:50;4.37;;;2.20;;
8001;SDS011;4046;48.774;8.732;2022-09-09T05:41:16;2.73;;;2.10;;
8001;SDS011;4046;48.774;8.732;2022-09-09T05:43:42;2.90;;;2.13;;
8001;SDS011;4046;48.774;8.732;2022-09-09T05:46:17;2.60;;;2.40;;
8001;SDS011;4046;48.774;8.732;2022-09-09T05:48:45;2.73;;;2.17;;
8001;SDS011;4046;48.774;8.732;2022-09-09T05:51:13;2.83;;;2.50;;
8001;SDS011;4046;48.774;8.732;2022-09-09T05:53:41;2.90;;;2.10;;
8001;SDS011;4046;48.774;8.732;2022-09-09T05:56:08;4.80;;;2.97;;
8001;SDS011;4046;48.774;8.732;2022-09-09T05:58:39;3.60;;;2.80;;
8001;SDS011;4046;48.774;8.732;2022-09-09T06:01:06;3.07;;;2.50;;
8001;SDS011;4046;48.774;8.732;2022-09-09T06:03:34;3.80;;;2.57;;
8001;SDS011;4046;48.774;8.732;2022-09-09T06:06:02;5.20;;;2.40;;
8001;SDS011;4046;48.774;8.732;2022-09-09T06:08:36;4.20;;;2.93;;
8001;SDS011;4046;48.774;8.732;2022-09-09T06:13:32;2.70;;;2.50;;
8001;SDS011;4046;48.774;8.732;2022-09-09T06:15:58;3.60;;;2.80;;
8001;SDS011;4046;48.774;8.732;2022-09-09T06:18:24;6.37;;;2.67;;
8001;SDS011;4046;48.774;8.732;2022-09-09T06:20:54;3.50;;;2.67;;
8001;SDS011;4046;48.774;8.732;2022-09-09T06:23:20;4.07;;;2.80;;
8001;SDS011;4046;48.774;8.732;2022-09-09T06:25:46;2.80;;;2.60;;
8001;SDS011;4046;48.774;8.732;2022-09-09T06:28:14;3.07;;;2.80;;
8001;SDS011;4046;48.774;8.732;2022-09-09T06:30:40;2.67;;;2.47;;
8001;SDS011;4046;48.774;8.732;2022-09-09T06:33:06;3.60;;;2.87;;
8001;SDS011;4046;48.774;8.732;2022-09-09T06:35:32;4.13;;;2.73;;
8001;SDS011;4046;48.774;8.732;2022-09-09T06:37:58;2.67;;;2.47;;
8001;SDS011;4046;48.774;8.732;2022-09-09T06:40:24;3.90;;;2.67;;
8001;SDS011;4046;48.774;8.732;2022-09-09T06:42:50;2.63;;;2.20;;
8001;SDS011;4046;48.774;8.732;2022-09-09T06:45:16;2.80;;;2.40;;
8001;SDS011;4046;48.774;8.732;2022-09-09T06:47:43;4.03;;;3.10;;
8001;SDS011;4046;48.774;8.732;2022-09-09T06:50:09;4.87;;;2.57;;
8001;SDS011;4046;48.774;8.732;2022-09-09T06:52:35;2.90;;;2.60;;
8001;SDS011;4046;48.774;8.732;2022-09-09T06:55:01;4.50;;;2.70;;
8001;SDS011;4046;48.774;8.732;2022-09-09T06:57:27;2.63;;;2.00;;
8001;SDS011;4046;48.774;8.732;2022-09-09T06:59:53;2.47;;;2.10;;
8001;SDS011;4046;48.774;8.732;2022-09-09T07:02:19;4.40;;;2.00;;
8001;SDS011;4046;48.774;8.732;2022-09-09T07:04:45;2.20;;;2.00;;
8001;SDS011;4046;48.774;8.732;2022-09-09T07:07:10;4.50;;;2.27;;
8001;SDS011;4046;48.774;8.732;2022-09-09T07:09:38;2.17;;;1.83;;
8001;SDS011;4046;48.774;8.732;2022-09-09T07:12:05;3.70;;;1.87;;
8001;SDS011;4046;48.774;8.732;2022-09-09T07:14:31;2.10;;;1.83;;
8001;SDS011;4046;48.774;8.732;2022-09-09T07:16:59;2.83;;;1.73;;
8001;SDS011;4046;48.774;8.732;2022-09-09T07:19:25;2.27;;;1.80;;
8001;SDS011;4046;48.774;8.732;2022-09-09T07:21:51;5.10;;;2.10;;
8001;SDS011;4046;48.774;8.732;2022-09-09T07:24:17;2.97;;;1.80;;
8001;SDS011;4046;48.774;8.732;2022-09-09T07:26:43;2.27;;;1.77;;
8001;SDS011;4046;48.774;8.732;2022-09-09T07:29:09;5.80;;;2.00;;
8001;SDS011;4046;48.774;8.732;2022-09-09T07:31:38;3.63;;;1.93;;
8001;SDS011;4046;48.774;8.732;2022-09-09T07:34:05;4.07;;;1.70;;
8001;SDS011;4046;48.774;8.732;2022-09-09T07:36:32;2.70;;;1.80;;
8001;SDS011;4046;48.774;8.732;2022-09-09T07:39:00;2.77;;;1.70;;
8001;SDS011;4046;48.774;8.732;2022-09-09T07:41:29;2.33;;;1.50;;
8001;SDS011;4046;48.774;8.732;2022-09-09T07:44:03;2.37;;;1.70;;
8001;SDS011;4046;48.774;8.732;2022-09-09T07:46:30;5.27;;;1.60;;
8001;SDS011;4046;48.774;8.732;2022-09-09T07:48:57;1.73;;;1.50;;
8001;SDS011;4046;48.774;8.732;2022-09-09T07:51:33;1.70;;;1.53;;
8001;SDS011;4046;48.774;8.732;2022-09-09T07:54:02;1.70;;;1.60;;
8001;SDS011;4046;48.774;8.732;2022-09-09T07:56:31;4.73;;;1.63;;
8001;SDS011;4046;48.774;8.732;2022-09-09T07:58:58;2.67;;;1.80;;
8001;SDS011;4046;48.774;8.732;2022-09-09T08:03:56;2.67;;;1.50;;
8001;SDS011;4046;48.774;8.732;2022-09-09T08:06:27;2.80;;;1.60;;
8001;SDS011;4046;48.774;8.732;2022-09-09T08:08:58;2.00;;;1.50;;
8001;SDS011;4046;48.774;8.732;2022-09-09T08:11:25;1.60;;;1.40;;
8001;SDS011;4046;48.774;8.732;2022-09-09T08:13:52;1.57;;;1.47;;
8001;SDS011;4046;48.774;8.732;2022-09-09T08:16:19;3.47;;;1.67;;
8001;SDS011;4046;48.774;8.732;2022-09-09T08:18:48;3.43;;;1.83;;
8001;SDS011;4046;48.774;8.732;2022-09-09T08:21:16;2.63;;;1.60;;
8001;SDS011;4046;48.774;8.732;2022-09-09T08:23:44;2.23;;;1.57;;
8001;SDS011;4046;48.774;8.732;2022-09-09T08:26:13;2.63;;;1.70;;
8001;SDS011;4046;48.774;8.732;2022-09-09T08:28:40;3.10;;;2.17;;
8001;SDS011;4046;48.774;8.732;2022-09-09T08:31:11;3.87;;;1.50;;
8001;SDS011;4046;48.774;8.732;2022-09-09T08:33:40;8.83;;;1.90;;
8001;SDS011;4046;48.774;8.732;2022-09-09T08:36:08;3.33;;;1.60;;
8001;SDS011;4046;48.774;8.732;2022-09-09T08:38:36;2.90;;;1.60;;
8001;SDS011;4046;48.774;8.732;2022-09-09T08:41:06;2.23;;;1.20;;
8001;SDS011;4046;48.774;8.732;2022-09-09T08:43:46;2.23;;;1.20;;
8001;SDS011;4046;48.774;8.732;2022-09-09T08:48:54;2.23;;;1.30;;
8001;SDS011;4046;48.774;8.732;2022-09-09T08:51:25;4.10;;;2.00;;
8001;SDS011;4046;48.774;8.732;2022-09-09T08:53:55;2.70;;;1.27;;
8001;SDS011;4046;48.774;8.732;2022-09-09T08:56:25;2.93;;;1.30;;
8001;SDS011;4046;48.774;8.732;2022-09-09T08:58:53;5.10;;;1.30;;
8001;SDS011;4046;48.774;8.732;2022-09-09T09:07:01;5.30;;;3.60;;
8001;SDS011;4046;48.774;8.732;2022-09-09T09:09:56;2.40;;;1.50;;
8001;SDS011;4046;48.774;8.732;2022-09-09T09:12:32;3.67;;;1.37;;
8001;SDS011;4046;48.774;8.732;2022-09-09T09:15:01;2.43;;;1.00;;
8001;SDS011;4046;48.774;8.732;2022-09-09T09:17:28;2.27;;;1.30;;
8001;SDS011;4046;48.774;8.732;2022-09-09T09:19:58;2.30;;;1.40;;
8001;SDS011;4046;48.774;8.732;2022-09-09T09:24:59;2.90;;;1.20;;
8001;SDS011;4046;48.774;8.732;2022-09-09T09:30:44;2.60;;;1.40;;
8001;SDS011;4046;48.774;8.732;2022-09-09T09:36:18;2.20;;;1.40;;
8001;SDS011;4046;48.774;8.732;2022-09-09T09:38:58;4.27;;;1.10;;
8001;SDS011;4046;48.774;8.732;2022-09-09T09:41:36;4.60;;;1.50;;
8001;SDS011;4046;48.774;8.732;2022-09-09T09:44:04;2.70;;;1.30;;
8001;SDS011;4046;48.774;8.732;2022-09-09T09:46:30;3.20;;;1.40;;
8001;SDS011;4046;48.774;8.732;2022-09-09T09:49:05;4.07;;;1.33;;
8001;SDS011;4046;48.774;8.732;2022-09-09T09:51:35;3.53;;;1.50;;
8001;SDS011;4046;48.774;8.732;2022-09-09T09:56:40;3.10;;;1.07;;
8001;SDS011;4046;48.774;8.732;2022-09-09T10:02:12;2.33;;;1.20;;
8001;SDS011;4046;48.774;8.732;2022-09-09T10:04:41;1.73;;;1.20;;
8001;SDS011;4046;48.774;8.732;2022-09-09T10:07:12;2.07;;;1.00;;
8001;SDS011;4046;48.774;8.732;2022-09-09T10:09:45;2.60;;;1.00;;
8001;SDS011;4046;48.774;8.732;2022-09-09T10:14:58;2.53;;;1.20;;
8001;SDS011;4046;48.774;8.732;2022-09-09T10:17:40;1.57;;;0.90;;
8001;SDS011;4046;48.774;8.732;2022-09-09T10:22:52;1.83;;;0.97;;
8001;SDS011;4046;48.774;8.732;2022-09-09T10:25:58;2.00;;;1.23;;
8001;SDS011;4046;48.774;8.732;2022-09-09T10:37:11;2.80;;;1.20;;
8001;SDS011;4046;48.774;8.732;2022-09-09T10:40:23;2.70;;;1.47;;
8001;SDS011;4046;48.774;8.732;2022-09-09T10:42:46;3.20;;;1.20;;
8001;SDS011;4046;48.774;8.732;2022-09-09T10:45:17;2.13;;;1.30;;
8001;SDS011;4046;48.774;8.732;2022-09-09T10:50:55;2.80;;;1.20;;
8001;SDS011;4046;48.774;8.732;2022-09-09T10:56:51;3.23;;;1.20;;
8001;SDS011;4046;48.774;8.732;2022-09-09T10:59:28;1.80;;;1.13;;
8001;SDS011;4046;48.774;8.732;2022-09-09T11:05:04;3.20;;;1.50;;
8001;SDS011;4046;48.774;8.732;2022-09-09T11:07:41;1.70;;;1.30;;
8001;SDS011;4046;48.774;8.732;2022-09-09T11:10:17;3.23;;;1.70;;
8001;SDS011;4046;48.774;8.732;2022-09-09T11:12:45;1.97;;;1.17;;
8001;SDS011;4046;48.774;8.732;2022-09-09T11:15:20;3.23;;;1.60;;
8001;SDS011;4046;48.774;8.732;2022-09-09T11:17:55;4.10;;;1.30;;
8001;SDS011;4046;48.774;8.732;2022-09-09T11:20:23;1.90;;;1.10;;
8001;SDS011;4046;48.774;8.732;2022-09-09T11:25:41;6.80;;;2.10;;
8001;SDS011;4046;48.774;8.732;2022-09-09T11:36:58;3.00;;;1.80;;
8001;SDS011;4046;48.774;8.732;2022-09-09T11:39:58;1.30;;;0.90;;
8001;SDS011;4046;48.774;8.732;2022-09-09T11:42:28;4.70;;;1.47;;
8001;SDS011;4046;48.774;8.732;2022-09-09T11:44:55;2.73;;;1.33;;
8001;SDS011;4046;48.774;8.732;2022-09-09T11:47:30;3.77;;;1.43;;
8001;SDS011;4046;48.774;8.732;2022-09-09T11:52:42;1.40;;;1.00;;
8001;SDS011;4046;48.774;8.732;2022-09-09T11:55:25;2.03;;;1.03;;
8001;SDS011;4046;48.774;8.732;2022-09-09T11:58:04;2.07;;;1.30;;
8001;SDS011;4046;48.774;8.732;2022-09-09T12:00:41;1.53;;;1.00;;
8001;SDS011;4046;48.774;8.732;2022-09-09T12:06:19;2.80;;;1.10;;
8001;SDS011;4046;48.774;8.732;2022-09-09T12:08:53;2.00;;;1.10;;
8001;SDS011;4046;48.774;8.732;2022-09-09T12:11:24;1.87;;;0.97;;
8001;SDS011;4046;48.774;8.732;2022-09-09T12:13:56;1.60;;;0.97;;
8001;SDS011;4046;48.774;8.732;2022-09-09T12:16:43;1.70;;;0.87;;
8001;SDS011;4046;48.774;8.732;2022-09-09T12:29:56;1.87;;;1.00;;
8001;SDS011;4046;48.774;8.732;2022-09-09T12:32:35;4.40;;;1.70;;
8001;SDS011;4046;48.774;8.732;2022-09-09T12:35:09;1.60;;;1.00;;
8001;SDS011;4046;48.774;8.732;2022-09-09T12:37:52;1.83;;;1.00;;
8001;SDS011;4046;48.774;8.732;2022-09-09T12:40:30;2.57;;;1.20;;
8001;SDS011;4046;48.774;8.732;2022-09-09T12:43:00;1.57;;;0.90;;
8001;SDS011;4046;48.774;8.732;2022-09-09T12:45:27;1.50;;;1.00;;
8001;SDS011;4046;48.774;8.732;2022-09-09T12:48:06;2.23;;;0.90;;
8001;SDS011;4046;48.774;8.732;2022-09-09T12:50:35;2.10;;;1.00;;
8001;SDS011;4046;48.774;8.732;2022-09-09T12:56:08;4.10;;;1.40;;
8001;SDS011;4046;48.774;8.732;2022-09-09T12:58:45;1.57;;;0.90;;
8001;SDS011;4046;48.774;8.732;2022-09-09T13:03:56;5.73;;;1.80;;
8001;SDS011;4046;48.774;8.732;2022-09-09T13:06:23;2.60;;;0.90;;
8001;SDS011;4046;48.774;8.732;2022-09-09T13:08:53;1.87;;;0.70;;
8001;SDS011;4046;48.774;8.732;2022-09-09T13:11:21;1.33;;;0.80;;
8001;SDS011;4046;48.774;8.732;2022-09-09T13:13:54;2.20;;;0.80;;
8001;SDS011;4046;48.774;8.732;2022-09-09T13:16:28;1.70;;;1.20;;
8001;SDS011;4046;48.774;8.732;2022-09-09T13:18:57;1.60;;;0.90;;
8001;SDS011;4046;48.774;8.732;2022-09-09T13:21:31;1.20;;;0.70;;
8001;SDS011;4046;48.774;8.732;2022-09-09T13:23:58;1.40;;;1.00;;
8001;SDS011;4046;48.774;8.732;2022-09-09T13:26:28;1.67;;;1.10;;
8001;SDS011;4046;48.774;8.732;2022-09-09T13:28:55;2.40;;;1.23;;
8001;SDS011;4046;48.774;8.732;2022-09-09T13:31:39;1.70;;;0.80;;
8001;SDS011;4046;48.774;8.732;2022-09-09T13:36:57;1.50;;;0.80;;
8001;SDS011;4046;48.774;8.732;2022-09-09T13:39:30;2.80;;;0.83;;
8001;SDS011;4046;48.774;8.732;2022-09-09T13:41:59;1.60;;;0.90;;
8001;SDS011;4046;48.774;8.732;2022-09-09T13:44:35;2.50;;;1.07;;
8001;SDS011;4046;48.774;8.732;2022-09-09T13:49:31;3.13;;;1.40;;
8001;SDS011;4046;48.774;8.732;2022-09-09T13:52:05;2.30;;;0.80;;
8001;SDS011;4046;48.774;8.732;2022-09-09T13:54:42;2.03;;;0.90;;
8001;SDS011;4046;48.774;8.732;2022-09-09T13:57:14;1.80;;;0.87;;
8001;SDS011;4046;48.774;8.732;2022-09-09T13:59:42;2.70;;;0.93;;
8001;SDS011;4046;48.774;8.732;2022-09-09T14:02:08;4.20;;;2.10;;
8001;SDS011;4046;48.774;8.732;2022-09-09T14:04:33;1.77;;;0.90;;
8001;SDS011;4046;48.774;8.732;2022-09-09T14:07:00;3.50;;;1.83;;
8001;SDS011;4046;48.774;8.732;2022-09-09T14:09:26;2.77;;;1.80;;
8001;SDS011;4046;48.774;8.732;2022-09-09T14:11:52;1.60;;;1.00;;
8001;SDS011;4046;48.774;8.732;2022-09-09T14:14:18;2.90;;;1.23;;
8001;SDS011;4046;48.774;8.732;2022-09-09T14:16:44;2.30;;;1.10;;
8001;SDS011;4046;48.774;8.732;2022-09-09T14:19:09;1.93;;;1.00;;
8001;SDS011;4046;48.774;8.732;2022-09-09T14:21:35;3.23;;;0.90;;
8001;SDS011;4046;48.774;8.732;2022-09-09T14:24:01;2.00;;;0.70;;
8001;SDS011;4046;48.774;8.732;2022-09-09T14:26:26;1.77;;;0.73;;
8001;SDS011;4046;48.774;8.732;2022-09-09T14:28:53;1.40;;;0.70;;
8001;SDS011;4046;48.774;8.732;2022-09-09T14:31:19;2.83;;;0.80;;
8001;SDS011;4046;48.774;8.732;2022-09-09T14:33:46;2.20;;;0.80;;
8001;SDS011;4046;48.774;8.732;2022-09-09T14:36:12;3.00;;;1.20;;
8001;SDS011;4046;48.774;8.732;2022-09-09T14:38:38;2.70;;;0.90;;
8001;SDS011;4046;48.774;8.732;2022-09-09T14:41:15;1.20;;;0.70;;
8001;SDS011;4046;48.774;8.732;2022-09-09T14:43:42;1.60;;;0.63;;
8001;SDS011;4046;48.774;8.732;2022-09-09T14:46:09;1.60;;;0.97;;
8001;SDS011;4046;48.774;8.732;2022-09-09T14:48:36;1.80;;;1.00;;
8001;SDS011;4046;48.774;8.732;2022-09-09T14:51:05;1.30;;;0.90;;
8001;SDS011;4046;48.774;8.732;2022-09-09T14:53:32;2.63;;;0.90;;
8001;SDS011;4046;48.774;8.732;2022-09-09T14:56:08;1.93;;;0.87;;
8001;SDS011;4046;48.774;8.732;2022-09-09T14:58:36;3.00;;;0.90;;
8001;SDS011;4046;48.774;8.732;2022-09-09T15:01:13;1.70;;;0.97;;
8001;SDS011;4046;48.774;8.732;2022-09-09T15:03:40;1.60;;;0.90;;
8001;SDS011;4046;48.774;8.732;2022-09-09T15:06:08;1.50;;;0.87;;
8001;SDS011;4046;48.774;8.732;2022-09-09T15:08:39;1.40;;;0.90;;
8001;SDS011;4046;48.774;8.732;2022-09-09T15:11:06;3.53;;;1.00;;
8001;SDS011;4046;48.774;8.732;2022-09-09T15:13:33;2.80;;;0.83;;
8001;SDS011;4046;48.774;8.732;2022-09-09T15:16:06;1.40;;;0.80;;
8001;SDS011;4046;48.774;8.732;2022-09-09T15:18:33;2.33;;;0.90;;
8001;SDS011;4046;48.774;8.732;2022-09-09T15:20:59;2.50;;;1.17;;
8001;SDS011;4046;48.774;8.732;2022-09-09T15:23:26;2.60;;;0.83;;
8001;SDS011;4046;48.774;8.732;2022-09-09T15:25:53;1.63;;;1.00;;
8001;SDS011;4046;48.774;8.732;2022-09-09T15:28:20;1.20;;;0.70;;
8001;SDS011;4046;48.774;8.732;2022-09-09T15:30:47;1.60;;;1.00;;
8001;SDS011;4046;48.774;8.732;2022-09-09T15:33:17;1.90;;;0.90;;
8001;SDS011;4046;48.774;8.732;2022-09-09T15:35:44;3.07;;;0.90;;
8001;SDS011;4046;48.774;8.732;2022-09-09T15:38:10;2.70;;;1.07;;
8001;SDS011;4046;48.774;8.732;2022-09-09T15:40:38;4.60;;;1.20;;
8001;SDS011;4046;48.774;8.732;2022-09-09T15:43:05;3.03;;;1.17;;
8001;SDS011;4046;48.774;8.732;2022-09-09T15:45:32;8.33;;;1.23;;
8001;SDS011;4046;48.774;8.732;2022-09-09T15:47:59;7.93;;;1.60;;
8001;SDS011;4046;48.774;8.732;2022-09-09T15:50:25;2.23;;;1.07;;
8001;SDS011;4046;48.774;8.732;2022-09-09T15:52:52;1.20;;;0.70;;
8001;SDS011;4046;48.774;8.732;2022-09-09T15:55:18;1.50;;;0.70;;
8001;SDS011;4046;48.774;8.732;2022-09-09T15:57:49;1.50;;;0.80;;
8001;SDS011;4046;48.774;8.732;2022-09-09T16:00:17;1.87;;;0.70;;
8001;SDS011;4046;48.774;8.732;2022-09-09T16:02:43;2.23;;;0.80;;
8001;SDS011;4046;48.774;8.732;2022-09-09T16:05:13;2.20;;;0.80;;
8001;SDS011;4046;48.774;8.732;2022-09-09T16:07:38;2.40;;;0.80;;
8001;SDS011;4046;48.774;8.732;2022-09-09T16:10:05;2.50;;;0.80;;
8001;SDS011;4046;48.774;8.732;2022-09-09T16:12:31;1.60;;;0.70;;
8001;SDS011;4046;48.774;8.732;2022-09-09T16:14:57;2.50;;;0.90;;
8001;SDS011;4046;48.774;8.732;2022-09-09T16:17:24;1.90;;;0.87;;
8001;SDS011;4046;48.774;8.732;2022-09-09T16:19:50;1.77;;;0.83;;
8001;SDS011;4046;48.774;8.732;2022-09-09T16:22:16;1.27;;;0.80;;
8001;SDS011;4046;48.774;8.732;2022-09-09T16:24:43;2.73;;;0.90;;
8001;SDS011;4046;48.774;8.732;2022-09-09T16:27:10;3.10;;;0.70;;
8001;SDS011;4046;48.774;8.732;2022-09-09T16:29:36;2.23;;;1.10;;
8001;SDS011;4046;48.774;8.732;2022-09-09T16:32:02;1.60;;;1.20;;
8001;SDS011;4046;48.774;8.732;2022-09-09T16:34:27;1.73;;;1.00;;
8001;SDS011;4046;48.774;8.732;2022-09-09T16:36:53;3.23;;;0.80;;
8001;SDS011;4046;48.774;8.732;2022-09-09T16:39:19;1.60;;;1.20;;
8001;SDS011;4046;48.774;8.732;2022-09-09T16:41:46;2.97;;;1.53;;
8001;SDS011;4046;48.774;8.732;2022-09-09T16:44:14;1.60;;;1.00;;
8001;SDS011;4046;48.774;8.732;2022-09-09T16:46:42;1.70;;;1.10;;
8001;SDS011;4046;48.774;8.732;2022-09-09T16:49:10;3.87;;;0.90;;
8001;SDS011;4046;48.774;8.732;2022-09-09T16:51:47;2.80;;;1.20;;
8001;SDS011;4046;48.774;8.732;2022-09-09T16:54:15;1.50;;;1.10;;
8001;SDS011;4046;48.774;8.732;2022-09-09T16:56:43;2.30;;;1.00;;
8001;SDS011;4046;48.774;8.732;2022-09-09T16:59:14;2.57;;;0.90;;
8001;SDS011;4046;48.774;8.732;2022-09-09T17:01:42;1.90;;;1.20;;
8001;SDS011;4046;48.774;8.732;2022-09-09T17:04:10;1.50;;;1.00;;
8001;SDS011;4046;48.774;8.732;2022-09-09T17:06:41;1.40;;;1.10;;
8001;SDS011;4046;48.774;8.732;2022-09-09T17:09:08;2.37;;;1.60;;
8001;SDS011;4046;48.774;8.732;2022-09-09T17:11:36;3.00;;;1.60;;
8001;SDS011;4046;48.774;8.732;2022-09-09T17:14:05;2.10;;;1.90;;
8001;SDS011;4046;48.774;8.732;2022-09-09T17:16:33;2.50;;;2.30;;
8001;SDS011;4046;48.774;8.732;2022-09-09T17:19:01;2.27;;;1.50;;
8001;SDS011;4046;48.774;8.732;2022-09-09T17:21:28;1.63;;;1.53;;
8001;SDS011;4046;48.774;8.732;2022-09-09T17:23:55;1.50;;;1.17;;
8001;SDS011;4046;48.774;8.732;2022-09-09T17:26:23;3.63;;;1.30;;
8001;SDS011;4046;48.774;8.732;2022-09-09T17:28:52;1.60;;;1.27;;
8001;SDS011;4046;48.774;8.732;2022-09-09T17:31:19;2.67;;;1.57;;
8001;SDS011;4046;48.774;8.732;2022-09-09T17:33:46;2.77;;;1.70;;
8001;SDS011;4046;48.774;8.732;2022-09-09T17:36:15;2.23;;;1.43;;
8001;SDS011;4046;48.774;8.732;2022-09-09T17:38:43;2.77;;;1.50;;
8001;SDS011;4046;48.774;8.732;2022-09-09T17:41:10;2.73;;;2.43;;